sensor_id;sensor_type;location;lat;lon;timestamp;temperature;humidity
42479;DHT22;28110;47.080;9.476;2022-11-15T00:01:22;11.00;90.80
42479;DHT22;28110;47.080;9.476;2022-11-15T00:03:50;10.90;90.90
42479;DHT22;28110;47.080;9.476;2022-11-15T00:06:16;10.90;90.80
42479;DHT22;28110;47.080;9.476;2022-11-15T00:08:41;10.90;91.10
42479;DHT22;28110;47.080;9.476;2022-11-15T00:11:10;10.90;91.30
42479;DHT22;28110;47.080;9.476;2022-11-15T00:13:36;10.80;91.10
42479;DHT22;28110;47.080;9.476;2022-11-15T00:16:02;10.80;91.20
42479;DHT22;28110;47.080;9.476;2022-11-15T00:18:29;10.80;91.10
42479;DHT22;28110;47.080;9.476;2022-11-15T00:20:55;10.80;91.20
42479;DHT22;28110;47.080;9.476;2022-11-15T00:23:21;10.80;91.20
42479;DHT22;28110;47.080;9.476;2022-11-15T00:25:46;10.80;90.90
42479;DHT22;28110;47.080;9.476;2022-11-15T00:28:12;10.80;90.90
42479;DHT22;28110;47.080;9.476;2022-11-15T00:30:37;10.80;90.80
42479;DHT22;28110;47.080;9.476;2022-11-15T00:33:06;10.80;90.60
42479;DHT22;28110;47.080;9.476;2022-11-15T00:35:32;10.80;90.90
42479;DHT22;28110;47.080;9.476;2022-11-15T00:37:59;10.90;90.60
42479;DHT22;28110;47.080;9.476;2022-11-15T00:40:25;10.80;90.80
42479;DHT22;28110;47.080;9.476;2022-11-15T00:42:50;10.80;90.80
42479;DHT22;28110;47.080;9.476;2022-11-15T00:45:16;10.80;90.50
42479;DHT22;28110;47.080;9.476;2022-11-15T00:47:44;10.80;90.40
42479;DHT22;28110;47.080;9.476;2022-11-15T00:50:10;10.70;90.40
42479;DHT22;28110;47.080;9.476;2022-11-15T00:52:36;10.80;90.50
42479;DHT22;28110;47.080;9.476;2022-11-15T00:55:02;10.80;90.70
42479;DHT22;28110;47.080;9.476;2022-11-15T00:57:27;10.80;90.60
42479;DHT22;28110;47.080;9.476;2022-11-15T00:59:53;10.80;90.40
42479;DHT22;28110;47.080;9.476;2022-11-15T01:02:18;10.90;90.70
42479;DHT22;28110;47.080;9.476;2022-11-15T01:04:44;10.90;90.60
42479;DHT22;28110;47.080;9.476;2022-11-15T01:07:09;10.90;90.80
42479;DHT22;28110;47.080;9.476;2022-11-15T01:09:35;10.80;90.70
42479;DHT22;28110;47.080;9.476;2022-11-15T01:12:00;10.80;90.70
42479;DHT22;28110;47.080;9.476;2022-11-15T01:14:26;10.70;90.70
42479;DHT22;28110;47.080;9.476;2022-11-15T01:16:52;10.60;91.00
42479;DHT22;28110;47.080;9.476;2022-11-15T01:19:17;10.60;90.80
42479;DHT22;28110;47.080;9.476;2022-11-15T01:21:43;10.60;90.90
42479;DHT22;28110;47.080;9.476;2022-11-15T01:24:11;10.60;90.90
42479;DHT22;28110;47.080;9.476;2022-11-15T01:26:37;10.70;90.90
42479;DHT22;28110;47.080;9.476;2022-11-15T01:29:03;10.70;91.00
42479;DHT22;28110;47.080;9.476;2022-11-15T01:31:28;10.60;90.70
42479;DHT22;28110;47.080;9.476;2022-11-15T01:33:54;10.70;90.80
42479;DHT22;28110;47.080;9.476;2022-11-15T01:36:21;10.60;91.00
42479;DHT22;28110;47.080;9.476;2022-11-15T01:38:53;10.70;90.90
42479;DHT22;28110;47.080;9.476;2022-11-15T01:41:21;10.70;90.90
42479;DHT22;28110;47.080;9.476;2022-11-15T01:43:51;10.70;91.00
42479;DHT22;28110;47.080;9.476;2022-11-15T01:46:36;10.70;90.90
42479;DHT22;28110;47.080;9.476;2022-11-15T01:49:08;10.70;90.80
42479;DHT22;28110;47.080;9.476;2022-11-15T01:51:35;10.60;91.10
42479;DHT22;28110;47.080;9.476;2022-11-15T01:54:05;10.60;91.00
42479;DHT22;28110;47.080;9.476;2022-11-15T01:56:41;10.60;90.90
42479;DHT22;28110;47.080;9.476;2022-11-15T01:59:08;10.50;91.10
42479;DHT22;28110;47.080;9.476;2022-11-15T02:01:34;10.50;91.20
42479;DHT22;28110;47.080;9.476;2022-11-15T02:04:20;10.50;91.00
42479;DHT22;28110;47.080;9.476;2022-11-15T02:06:48;10.60;90.60
42479;DHT22;28110;47.080;9.476;2022-11-15T02:09:15;10.50;90.90
42479;DHT22;28110;47.080;9.476;2022-11-15T02:11:41;10.60;90.90
42479;DHT22;28110;47.080;9.476;2022-11-15T02:14:07;10.60;90.70
42479;DHT22;28110;47.080;9.476;2022-11-15T02:17:02;10.60;90.80
42479;DHT22;28110;47.080;9.476;2022-11-15T02:22:22;10.60;91.10
42479;DHT22;28110;47.080;9.476;2022-11-15T02:30:30;10.50;91.10
42479;DHT22;28110;47.080;9.476;2022-11-15T02:41:07;10.40;91.20
42479;DHT22;28110;47.080;9.476;2022-11-15T02:43:43;10.50;91.30
42479;DHT22;28110;47.080;9.476;2022-11-15T02:46:36;10.50;91.10
42479;DHT22;28110;47.080;9.476;2022-11-15T02:49:23;10.40;91.10
42479;DHT22;28110;47.080;9.476;2022-11-15T02:51:51;10.40;91.00
42479;DHT22;28110;47.080;9.476;2022-11-15T02:54:22;10.40;91.30
42479;DHT22;28110;47.080;9.476;2022-11-15T02:56:50;10.30;91.40
42479;DHT22;28110;47.080;9.476;2022-11-15T02:59:20;10.30;91.60
42479;DHT22;28110;47.080;9.476;2022-11-15T03:04:44;10.30;91.40
42479;DHT22;28110;47.080;9.476;2022-11-15T03:07:16;10.30;91.40
42479;DHT22;28110;47.080;9.476;2022-11-15T03:10:42;10.30;91.60
42479;DHT22;28110;47.080;9.476;2022-11-15T03:12:51;10.30;91.50
42479;DHT22;28110;47.080;9.476;2022-11-15T03:15:44;10.20;91.50
42479;DHT22;28110;47.080;9.476;2022-11-15T03:18:30;10.10;91.90
42479;DHT22;28110;47.080;9.476;2022-11-15T03:21:00;10.00;92.10
42479;DHT22;28110;47.080;9.476;2022-11-15T03:23:29;10.00;92.40
42479;DHT22;28110;47.080;9.476;2022-11-15T03:25:56;10.00;91.80
42479;DHT22;28110;47.080;9.476;2022-11-15T03:28:27;10.00;92.00
42479;DHT22;28110;47.080;9.476;2022-11-15T03:30:53;10.00;92.10
42479;DHT22;28110;47.080;9.476;2022-11-15T03:33:21;9.90;92.30
42479;DHT22;28110;47.080;9.476;2022-11-15T03:35:47;9.90;92.50
42479;DHT22;28110;47.080;9.476;2022-11-15T03:40:47;9.80;92.70
42479;DHT22;28110;47.080;9.476;2022-11-15T03:43:39;9.70;93.00
42479;DHT22;28110;47.080;9.476;2022-11-15T03:46:21;9.70;93.40
42479;DHT22;28110;47.080;9.476;2022-11-15T03:48:53;9.70;92.70
42479;DHT22;28110;47.080;9.476;2022-11-15T03:51:20;9.70;92.70
42479;DHT22;28110;47.080;9.476;2022-11-15T03:53:46;9.70;92.70
42479;DHT22;28110;47.080;9.476;2022-11-15T03:56:11;9.70;92.60
42479;DHT22;28110;47.080;9.476;2022-11-15T03:58:37;9.80;92.40
42479;DHT22;28110;47.080;9.476;2022-11-15T04:01:03;9.70;93.00
42479;DHT22;28110;47.080;9.476;2022-11-15T04:03:28;9.60;93.20
42479;DHT22;28110;47.080;9.476;2022-11-15T04:05:54;9.60;93.00
42479;DHT22;28110;47.080;9.476;2022-11-15T04:08:19;9.60;93.00
42479;DHT22;28110;47.080;9.476;2022-11-15T04:10:45;9.60;93.00
42479;DHT22;28110;47.080;9.476;2022-11-15T04:13:10;9.70;92.80
42479;DHT22;28110;47.080;9.476;2022-11-15T04:15:36;9.70;92.50
42479;DHT22;28110;47.080;9.476;2022-11-15T04:18:02;9.80;92.40
42479;DHT22;28110;47.080;9.476;2022-11-15T04:20:29;9.80;92.40
42479;DHT22;28110;47.080;9.476;2022-11-15T04:23:22;9.90;92.30
42479;DHT22;28110;47.080;9.476;2022-11-15T04:26:12;9.90;92.30
42479;DHT22;28110;47.080;9.476;2022-11-15T04:28:39;9.80;92.50
42479;DHT22;28110;47.080;9.476;2022-11-15T04:31:26;9.80;92.40
42479;DHT22;28110;47.080;9.476;2022-11-15T04:33:51;9.80;92.50
42479;DHT22;28110;47.080;9.476;2022-11-15T04:36:17;9.80;92.80
42479;DHT22;28110;47.080;9.476;2022-11-15T04:39:02;9.80;92.60
42479;DHT22;28110;47.080;9.476;2022-11-15T04:41:27;9.70;92.70
42479;DHT22;28110;47.080;9.476;2022-11-15T04:43:54;9.70;93.00
42479;DHT22;28110;47.080;9.476;2022-11-15T04:46:20;9.70;92.90
42479;DHT22;28110;47.080;9.476;2022-11-15T04:48:45;9.70;92.80
42479;DHT22;28110;47.080;9.476;2022-11-15T04:51:11;9.80;93.00
42479;DHT22;28110;47.080;9.476;2022-11-15T04:53:36;9.80;93.00
42479;DHT22;28110;47.080;9.476;2022-11-15T04:56:02;9.80;92.70
42479;DHT22;28110;47.080;9.476;2022-11-15T04:58:27;9.80;93.00
42479;DHT22;28110;47.080;9.476;2022-11-15T05:00:53;9.80;93.20
42479;DHT22;28110;47.080;9.476;2022-11-15T05:03:18;9.70;93.30
42479;DHT22;28110;47.080;9.476;2022-11-15T05:06:03;9.70;93.20
42479;DHT22;28110;47.080;9.476;2022-11-15T05:08:28;9.60;93.20
42479;DHT22;28110;47.080;9.476;2022-11-15T05:10:54;9.60;93.40
42479;DHT22;28110;47.080;9.476;2022-11-15T05:13:19;9.50;93.50
42479;DHT22;28110;47.080;9.476;2022-11-15T05:15:45;9.50;93.40
42479;DHT22;28110;47.080;9.476;2022-11-15T05:18:11;9.50;93.40
42479;DHT22;28110;47.080;9.476;2022-11-15T05:20:37;9.50;93.20
42479;DHT22;28110;47.080;9.476;2022-11-15T05:23:02;9.60;92.90
42479;DHT22;28110;47.080;9.476;2022-11-15T05:25:28;9.70;92.60
42479;DHT22;28110;47.080;9.476;2022-11-15T05:27:54;9.80;92.50
42479;DHT22;28110;47.080;9.476;2022-11-15T05:30:19;9.80;92.40
42479;DHT22;28110;47.080;9.476;2022-11-15T05:32:45;9.80;92.40
42479;DHT22;28110;47.080;9.476;2022-11-15T05:35:35;9.90;92.00
42479;DHT22;28110;47.080;9.476;2022-11-15T05:37:59;9.90;91.80
42479;DHT22;28110;47.080;9.476;2022-11-15T05:40:26;10.00;91.80
42479;DHT22;28110;47.080;9.476;2022-11-15T05:42:51;10.10;91.50
42479;DHT22;28110;47.080;9.476;2022-11-15T05:45:17;10.10;91.40
42479;DHT22;28110;47.080;9.476;2022-11-15T05:47:43;10.10;91.60
42479;DHT22;28110;47.080;9.476;2022-11-15T05:50:14;10.10;91.90
42479;DHT22;28110;47.080;9.476;2022-11-15T05:52:42;10.10;91.60
42479;DHT22;28110;47.080;9.476;2022-11-15T05:55:08;10.10;91.50
42479;DHT22;28110;47.080;9.476;2022-11-15T05:57:34;10.10;91.30
42479;DHT22;28110;47.080;9.476;2022-11-15T06:00:01;10.20;91.20
42479;DHT22;28110;47.080;9.476;2022-11-15T06:02:26;10.20;91.10
42479;DHT22;28110;47.080;9.476;2022-11-15T06:04:52;10.30;91.00
42479;DHT22;28110;47.080;9.476;2022-11-15T06:07:17;10.30;91.00
42479;DHT22;28110;47.080;9.476;2022-11-15T06:09:43;10.30;90.90
42479;DHT22;28110;47.080;9.476;2022-11-15T06:12:08;10.30;90.80
42479;DHT22;28110;47.080;9.476;2022-11-15T06:14:34;10.30;90.80
42479;DHT22;28110;47.080;9.476;2022-11-15T06:16:59;10.30;90.80
42479;DHT22;28110;47.080;9.476;2022-11-15T06:19:25;10.30;90.60
42479;DHT22;28110;47.080;9.476;2022-11-15T06:21:50;10.30;91.00
42479;DHT22;28110;47.080;9.476;2022-11-15T06:24:16;10.20;91.40
42479;DHT22;28110;47.080;9.476;2022-11-15T06:26:41;10.10;91.60
42479;DHT22;28110;47.080;9.476;2022-11-15T06:29:07;10.10;92.00
42479;DHT22;28110;47.080;9.476;2022-11-15T06:31:33;10.00;92.00
42479;DHT22;28110;47.080;9.476;2022-11-15T06:33:59;9.90;92.50
42479;DHT22;28110;47.080;9.476;2022-11-15T06:36:25;9.80;92.50
42479;DHT22;28110;47.080;9.476;2022-11-15T06:38:50;9.80;92.60
42479;DHT22;28110;47.080;9.476;2022-11-15T06:41:16;9.80;92.20
42479;DHT22;28110;47.080;9.476;2022-11-15T06:43:43;9.80;92.30
42479;DHT22;28110;47.080;9.476;2022-11-15T06:46:08;9.90;92.20
42479;DHT22;28110;47.080;9.476;2022-11-15T06:48:34;9.90;92.10
42479;DHT22;28110;47.080;9.476;2022-11-15T06:51:01;9.90;92.20
42479;DHT22;28110;47.080;9.476;2022-11-15T06:53:28;9.90;92.40
42479;DHT22;28110;47.080;9.476;2022-11-15T06:55:59;9.90;92.30
42479;DHT22;28110;47.080;9.476;2022-11-15T06:58:25;9.80;92.30
42479;DHT22;28110;47.080;9.476;2022-11-15T07:00:51;9.80;92.20
42479;DHT22;28110;47.080;9.476;2022-11-15T07:03:16;10.00;92.30
42479;DHT22;28110;47.080;9.476;2022-11-15T07:05:42;10.10;92.10
42479;DHT22;28110;47.080;9.476;2022-11-15T07:08:07;10.10;91.50
42479;DHT22;28110;47.080;9.476;2022-11-15T07:10:34;10.20;92.00
42479;DHT22;28110;47.080;9.476;2022-11-15T07:12:59;10.20;92.10
42479;DHT22;28110;47.080;9.476;2022-11-15T07:15:25;10.20;92.20
42479;DHT22;28110;47.080;9.476;2022-11-15T07:17:51;10.20;92.20
42479;DHT22;28110;47.080;9.476;2022-11-15T07:20:17;10.10;92.20
42479;DHT22;28110;47.080;9.476;2022-11-15T07:22:43;10.10;92.60
42479;DHT22;28110;47.080;9.476;2022-11-15T07:25:10;10.10;92.00
42479;DHT22;28110;47.080;9.476;2022-11-15T07:27:36;10.10;92.30
42479;DHT22;28110;47.080;9.476;2022-11-15T07:30:03;10.10;92.50
42479;DHT22;28110;47.080;9.476;2022-11-15T07:32:29;10.10;92.20
42479;DHT22;28110;47.080;9.476;2022-11-15T07:34:54;10.10;92.40
42479;DHT22;28110;47.080;9.476;2022-11-15T07:37:20;10.20;91.70
42479;DHT22;28110;47.080;9.476;2022-11-15T07:39:46;10.30;91.70
42479;DHT22;28110;47.080;9.476;2022-11-15T07:42:11;10.40;91.70
42479;DHT22;28110;47.080;9.476;2022-11-15T07:44:55;10.50;91.50
42479;DHT22;28110;47.080;9.476;2022-11-15T07:47:21;10.60;91.80
42479;DHT22;28110;47.080;9.476;2022-11-15T07:49:47;10.60;91.60
42479;DHT22;28110;47.080;9.476;2022-11-15T07:52:13;10.70;91.40
42479;DHT22;28110;47.080;9.476;2022-11-15T07:54:39;10.70;91.10
42479;DHT22;28110;47.080;9.476;2022-11-15T07:57:04;10.80;91.10
42479;DHT22;28110;47.080;9.476;2022-11-15T07:59:31;10.80;91.10
42479;DHT22;28110;47.080;9.476;2022-11-15T08:01:56;10.80;91.00
42479;DHT22;28110;47.080;9.476;2022-11-15T08:04:22;10.90;91.10
42479;DHT22;28110;47.080;9.476;2022-11-15T08:06:47;11.00;91.00
42479;DHT22;28110;47.080;9.476;2022-11-15T08:09:13;11.00;90.60
42479;DHT22;28110;47.080;9.476;2022-11-15T08:11:39;11.10;90.60
42479;DHT22;28110;47.080;9.476;2022-11-15T08:14:04;11.10;90.60
42479;DHT22;28110;47.080;9.476;2022-11-15T08:16:30;11.20;90.30
42479;DHT22;28110;47.080;9.476;2022-11-15T08:18:56;11.20;90.80
42479;DHT22;28110;47.080;9.476;2022-11-15T08:21:22;11.20;90.70
42479;DHT22;28110;47.080;9.476;2022-11-15T08:23:48;11.30;90.50
42479;DHT22;28110;47.080;9.476;2022-11-15T08:26:14;11.30;90.30
42479;DHT22;28110;47.080;9.476;2022-11-15T08:28:39;11.30;91.10
42479;DHT22;28110;47.080;9.476;2022-11-15T08:31:06;11.30;90.40
42479;DHT22;28110;47.080;9.476;2022-11-15T08:33:32;11.40;90.30
42479;DHT22;28110;47.080;9.476;2022-11-15T08:35:59;11.30;90.20
42479;DHT22;28110;47.080;9.476;2022-11-15T08:38:25;11.40;90.40
42479;DHT22;28110;47.080;9.476;2022-11-15T08:40:52;11.40;90.30
42479;DHT22;28110;47.080;9.476;2022-11-15T08:43:19;11.50;90.60
42479;DHT22;28110;47.080;9.476;2022-11-15T08:45:44;11.50;90.30
42479;DHT22;28110;47.080;9.476;2022-11-15T08:48:10;11.60;90.20
42479;DHT22;28110;47.080;9.476;2022-11-15T08:50:36;11.70;90.30
42479;DHT22;28110;47.080;9.476;2022-11-15T08:53:08;11.80;90.00
42479;DHT22;28110;47.080;9.476;2022-11-15T08:55:36;11.80;90.00
42479;DHT22;28110;47.080;9.476;2022-11-15T08:58:02;11.90;90.40
42479;DHT22;28110;47.080;9.476;2022-11-15T09:00:28;11.90;90.00
42479;DHT22;28110;47.080;9.476;2022-11-15T09:02:53;12.00;89.20
42479;DHT22;28110;47.080;9.476;2022-11-15T09:05:19;12.10;89.40
42479;DHT22;28110;47.080;9.476;2022-11-15T09:07:45;12.00;89.20
42479;DHT22;28110;47.080;9.476;2022-11-15T09:10:10;12.00;89.60
42479;DHT22;28110;47.080;9.476;2022-11-15T09:12:36;12.00;89.60
42479;DHT22;28110;47.080;9.476;2022-11-15T09:15:02;12.10;89.20
42479;DHT22;28110;47.080;9.476;2022-11-15T09:17:28;12.20;89.10
42479;DHT22;28110;47.080;9.476;2022-11-15T09:19:54;12.30;90.10
42479;DHT22;28110;47.080;9.476;2022-11-15T09:22:19;12.40;90.00
42479;DHT22;28110;47.080;9.476;2022-11-15T09:24:45;12.50;89.60
42479;DHT22;28110;47.080;9.476;2022-11-15T09:27:10;12.60;89.40
42479;DHT22;28110;47.080;9.476;2022-11-15T09:29:36;12.70;89.00
42479;DHT22;28110;47.080;9.476;2022-11-15T09:32:01;12.70;88.70
42479;DHT22;28110;47.080;9.476;2022-11-15T09:34:27;12.70;87.40
42479;DHT22;28110;47.080;9.476;2022-11-15T09:36:52;12.80;87.60
42479;DHT22;28110;47.080;9.476;2022-11-15T09:39:18;12.80;87.60
42479;DHT22;28110;47.080;9.476;2022-11-15T09:44:54;13.00;88.20
42479;DHT22;28110;47.080;9.476;2022-11-15T09:49:51;13.10;87.50
42479;DHT22;28110;47.080;9.476;2022-11-15T09:52:19;13.20;87.70
42479;DHT22;28110;47.080;9.476;2022-11-15T09:54:48;13.20;86.90
42479;DHT22;28110;47.080;9.476;2022-11-15T09:57:17;13.30;89.00
42479;DHT22;28110;47.080;9.476;2022-11-15T10:00:21;13.30;89.10
42479;DHT22;28110;47.080;9.476;2022-11-15T10:03:23;13.40;86.20
42479;DHT22;28110;47.080;9.476;2022-11-15T10:05:53;13.50;87.40
42479;DHT22;28110;47.080;9.476;2022-11-15T10:08:35;13.60;89.20
42479;DHT22;28110;47.080;9.476;2022-11-15T10:11:09;13.70;87.60
42479;DHT22;28110;47.080;9.476;2022-11-15T10:13:40;13.70;87.00
42479;DHT22;28110;47.080;9.476;2022-11-15T10:22:23;14.00;86.90
42479;DHT22;28110;47.080;9.476;2022-11-15T10:24:50;14.00;90.00
42479;DHT22;28110;47.080;9.476;2022-11-15T10:27:23;13.90;90.30
42479;DHT22;28110;47.080;9.476;2022-11-15T10:29:50;13.90;90.40
42479;DHT22;28110;47.080;9.476;2022-11-15T10:32:20;13.80;90.70
42479;DHT22;28110;47.080;9.476;2022-11-15T10:34:47;13.70;91.20
42479;DHT22;28110;47.080;9.476;2022-11-15T10:37:13;13.60;91.30
42479;DHT22;28110;47.080;9.476;2022-11-15T10:39:39;13.60;92.30
42479;DHT22;28110;47.080;9.476;2022-11-15T10:42:18;13.50;91.70
42479;DHT22;28110;47.080;9.476;2022-11-15T10:44:50;13.40;91.90
42479;DHT22;28110;47.080;9.476;2022-11-15T10:52:22;13.30;91.60
42479;DHT22;28110;47.080;9.476;2022-11-15T10:54:59;13.30;91.80
42479;DHT22;28110;47.080;9.476;2022-11-15T10:57:35;13.30;91.90
42479;DHT22;28110;47.080;9.476;2022-11-15T11:00:46;13.30;92.90
42479;DHT22;28110;47.080;9.476;2022-11-15T11:02:57;13.30;93.40
42479;DHT22;28110;47.080;9.476;2022-11-15T11:05:37;13.30;93.90
42479;DHT22;28110;47.080;9.476;2022-11-15T11:11:01;13.30;93.70
42479;DHT22;28110;47.080;9.476;2022-11-15T11:18:38;13.30;95.30
42479;DHT22;28110;47.080;9.476;2022-11-15T11:21:10;13.20;95.50
42479;DHT22;28110;47.080;9.476;2022-11-15T11:29:33;13.20;94.70
42479;DHT22;28110;47.080;9.476;2022-11-15T11:35:22;13.10;94.80
42479;DHT22;28110;47.080;9.476;2022-11-15T11:38:34;13.10;95.10
42479;DHT22;28110;47.080;9.476;2022-11-15T11:46:48;12.90;93.80
42479;DHT22;28110;47.080;9.476;2022-11-15T11:49:30;12.90;93.30
42479;DHT22;28110;47.080;9.476;2022-11-15T11:55:00;12.90;94.00
42479;DHT22;28110;47.080;9.476;2022-11-15T12:00:26;12.90;95.40
42479;DHT22;28110;47.080;9.476;2022-11-15T12:05:46;12.80;95.00
42479;DHT22;28110;47.080;9.476;2022-11-15T12:11:12;12.70;95.80
42479;DHT22;28110;47.080;9.476;2022-11-15T12:13:39;12.60;96.10
42479;DHT22;28110;47.080;9.476;2022-11-15T12:18:44;12.60;96.70
42479;DHT22;28110;47.080;9.476;2022-11-15T12:21:31;12.50;97.20
42479;DHT22;28110;47.080;9.476;2022-11-15T12:24:08;12.50;97.80
42479;DHT22;28110;47.080;9.476;2022-11-15T12:26:42;12.40;96.80
42479;DHT22;28110;47.080;9.476;2022-11-15T12:29:48;12.30;97.00
42479;DHT22;28110;47.080;9.476;2022-11-15T12:32:25;12.30;97.50
42479;DHT22;28110;47.080;9.476;2022-11-15T12:34:52;12.30;97.70
42479;DHT22;28110;47.080;9.476;2022-11-15T12:37:48;12.40;97.40
42479;DHT22;28110;47.080;9.476;2022-11-15T12:40:25;12.50;97.60
42479;DHT22;28110;47.080;9.476;2022-11-15T12:45:40;12.40;97.60
42479;DHT22;28110;47.080;9.476;2022-11-15T12:50:54;12.40;98.00
42479;DHT22;28110;47.080;9.476;2022-11-15T13:01:09;12.50;97.30
42479;DHT22;28110;47.080;9.476;2022-11-15T13:03:35;12.40;97.10
42479;DHT22;28110;47.080;9.476;2022-11-15T13:07:54;12.40;97.80
42479;DHT22;28110;47.080;9.476;2022-11-15T13:12:11;12.40;97.80
42479;DHT22;28110;47.080;9.476;2022-11-15T13:14:59;12.30;98.10
42479;DHT22;28110;47.080;9.476;2022-11-15T13:17:37;12.20;98.30
42479;DHT22;28110;47.080;9.476;2022-11-15T13:25:38;12.20;98.50
42479;DHT22;28110;47.080;9.476;2022-11-15T13:30:55;12.10;99.00
42479;DHT22;28110;47.080;9.476;2022-11-15T13:33:33;12.00;99.40
42479;DHT22;28110;47.080;9.476;2022-11-15T13:36:02;12.00;99.80
42479;DHT22;28110;47.080;9.476;2022-11-15T13:38:31;12.00;99.90
42479;DHT22;28110;47.080;9.476;2022-11-15T13:40:58;12.00;99.90
42479;DHT22;28110;47.080;9.476;2022-11-15T13:43:34;12.00;99.90
42479;DHT22;28110;47.080;9.476;2022-11-15T13:46:13;12.10;99.90
42479;DHT22;28110;47.080;9.476;2022-11-15T13:48:41;12.10;99.90
42479;DHT22;28110;47.080;9.476;2022-11-15T13:51:24;12.00;99.90
42479;DHT22;28110;47.080;9.476;2022-11-15T13:56:41;12.00;99.90
42479;DHT22;28110;47.080;9.476;2022-11-15T13:59:33;12.00;99.90
42479;DHT22;28110;47.080;9.476;2022-11-15T14:02:03;11.90;99.90
42479;DHT22;28110;47.080;9.476;2022-11-15T14:04:36;12.00;99.90
42479;DHT22;28110;47.080;9.476;2022-11-15T14:07:03;12.10;99.90
42479;DHT22;28110;47.080;9.476;2022-11-15T14:12:00;12.10;99.90
42479;DHT22;28110;47.080;9.476;2022-11-15T14:14:30;12.10;99.90
42479;DHT22;28110;47.080;9.476;2022-11-15T14:16:58;12.10;99.90
42479;DHT22;28110;47.080;9.476;2022-11-15T14:22:09;12.00;99.90
42479;DHT22;28110;47.080;9.476;2022-11-15T14:24:38;12.00;99.90
42479;DHT22;28110;47.080;9.476;2022-11-15T14:29:42;12.00;99.90
42479;DHT22;28110;47.080;9.476;2022-11-15T14:32:26;12.00;99.90
42479;DHT22;28110;47.080;9.476;2022-11-15T14:35:00;12.10;99.90
42479;DHT22;28110;47.080;9.476;2022-11-15T14:37:28;12.10;99.90
42479;DHT22;28110;47.080;9.476;2022-11-15T14:39:54;12.20;99.90
42479;DHT22;28110;47.080;9.476;2022-11-15T14:42:21;12.30;99.90
42479;DHT22;28110;47.080;9.476;2022-11-15T14:44:47;12.30;99.90
42479;DHT22;28110;47.080;9.476;2022-11-15T14:47:13;12.30;99.90
42479;DHT22;28110;47.080;9.476;2022-11-15T14:49:39;12.40;99.90
42479;DHT22;28110;47.080;9.476;2022-11-15T14:52:31;12.40;99.90
42479;DHT22;28110;47.080;9.476;2022-11-15T14:55:00;12.50;99.90
42479;DHT22;28110;47.080;9.476;2022-11-15T14:57:27;12.50;99.90
42479;DHT22;28110;47.080;9.476;2022-11-15T14:59:53;12.50;99.90
42479;DHT22;28110;47.080;9.476;2022-11-15T15:02:24;12.60;99.90
42479;DHT22;28110;47.080;9.476;2022-11-15T15:04:50;12.60;99.90
42479;DHT22;28110;47.080;9.476;2022-11-15T15:07:16;12.60;99.90
42479;DHT22;28110;47.080;9.476;2022-11-15T15:09:43;12.60;99.90
42479;DHT22;28110;47.080;9.476;2022-11-15T15:12:20;12.60;99.90
42479;DHT22;28110;47.080;9.476;2022-11-15T15:14:48;12.60;99.90
42479;DHT22;28110;47.080;9.476;2022-11-15T15:17:14;12.60;99.90
42479;DHT22;28110;47.080;9.476;2022-11-15T15:19:40;12.60;99.90
42479;DHT22;28110;47.080;9.476;2022-11-15T15:22:06;12.50;99.90
42479;DHT22;28110;47.080;9.476;2022-11-15T15:24:34;12.40;99.90
42479;DHT22;28110;47.080;9.476;2022-11-15T15:26:59;12.30;99.90
42479;DHT22;28110;47.080;9.476;2022-11-15T15:29:25;12.20;99.90
42479;DHT22;28110;47.080;9.476;2022-11-15T15:31:50;12.10;99.90
42479;DHT22;28110;47.080;9.476;2022-11-15T15:34:17;12.00;99.90
42479;DHT22;28110;47.080;9.476;2022-11-15T15:36:42;11.90;99.90
42479;DHT22;28110;47.080;9.476;2022-11-15T15:39:10;11.80;99.90
42479;DHT22;28110;47.080;9.476;2022-11-15T15:41:36;11.70;99.90
42479;DHT22;28110;47.080;9.476;2022-11-15T15:44:02;11.60;99.90
42479;DHT22;28110;47.080;9.476;2022-11-15T15:46:27;11.50;99.90
42479;DHT22;28110;47.080;9.476;2022-11-15T15:48:53;11.50;99.90
42479;DHT22;28110;47.080;9.476;2022-11-15T15:51:18;11.40;99.90
42479;DHT22;28110;47.080;9.476;2022-11-15T15:53:44;11.30;99.90
42479;DHT22;28110;47.080;9.476;2022-11-15T15:56:09;11.30;99.90
42479;DHT22;28110;47.080;9.476;2022-11-15T15:58:35;11.30;99.90
42479;DHT22;28110;47.080;9.476;2022-11-15T16:01:01;11.30;99.90
42479;DHT22;28110;47.080;9.476;2022-11-15T16:03:26;11.30;99.90
42479;DHT22;28110;47.080;9.476;2022-11-15T16:05:53;11.20;99.90
42479;DHT22;28110;47.080;9.476;2022-11-15T16:08:20;11.10;99.90
42479;DHT22;28110;47.080;9.476;2022-11-15T16:10:46;11.10;99.90
42479;DHT22;28110;47.080;9.476;2022-11-15T16:13:12;11.10;99.90
42479;DHT22;28110;47.080;9.476;2022-11-15T16:15:37;11.00;99.90
42479;DHT22;28110;47.080;9.476;2022-11-15T16:18:04;11.00;99.90
42479;DHT22;28110;47.080;9.476;2022-11-15T16:20:34;11.00;99.90
42479;DHT22;28110;47.080;9.476;2022-11-15T16:23:02;11.00;99.90
42479;DHT22;28110;47.080;9.476;2022-11-15T16:25:28;10.90;99.90
42479;DHT22;28110;47.080;9.476;2022-11-15T16:27:54;10.90;99.90
42479;DHT22;28110;47.080;9.476;2022-11-15T16:30:21;10.90;99.90
42479;DHT22;28110;47.080;9.476;2022-11-15T16:32:47;10.90;99.90
42479;DHT22;28110;47.080;9.476;2022-11-15T16:35:14;10.80;99.90
42479;DHT22;28110;47.080;9.476;2022-11-15T16:37:41;10.80;99.90
42479;DHT22;28110;47.080;9.476;2022-11-15T16:40:17;10.80;99.90
42479;DHT22;28110;47.080;9.476;2022-11-15T16:57:00;10.70;99.90
42479;DHT22;28110;47.080;9.476;2022-11-15T16:59:25;10.70;99.90
42479;DHT22;28110;47.080;9.476;2022-11-15T17:01:51;10.70;99.90
42479;DHT22;28110;47.080;9.476;2022-11-15T17:04:18;10.60;99.90
42479;DHT22;28110;47.080;9.476;2022-11-15T17:06:46;10.70;99.90
42479;DHT22;28110;47.080;9.476;2022-11-15T17:09:21;10.60;99.90
42479;DHT22;28110;47.080;9.476;2022-11-15T17:11:50;10.50;99.90
42479;DHT22;28110;47.080;9.476;2022-11-15T17:14:16;10.40;99.90
42479;DHT22;28110;47.080;9.476;2022-11-15T17:16:42;10.40;99.90
42479;DHT22;28110;47.080;9.476;2022-11-15T17:19:19;10.40;99.90
42479;DHT22;28110;47.080;9.476;2022-11-15T17:21:46;10.40;99.90
42479;DHT22;28110;47.080;9.476;2022-11-15T17:24:14;10.30;99.90
42479;DHT22;28110;47.080;9.476;2022-11-15T17:26:39;10.30;99.90
42479;DHT22;28110;47.080;9.476;2022-11-15T17:29:07;10.30;99.90
42479;DHT22;28110;47.080;9.476;2022-11-15T17:31:34;10.30;99.90
42479;DHT22;28110;47.080;9.476;2022-11-15T17:34:01;10.30;99.90
42479;DHT22;28110;47.080;9.476;2022-11-15T17:36:26;10.20;99.90
42479;DHT22;28110;47.080;9.476;2022-11-15T17:38:52;10.20;99.90
42479;DHT22;28110;47.080;9.476;2022-11-15T17:41:18;10.30;99.90
42479;DHT22;28110;47.080;9.476;2022-11-15T17:43:45;10.20;99.90
42479;DHT22;28110;47.080;9.476;2022-11-15T17:46:17;10.20;99.90
42479;DHT22;28110;47.080;9.476;2022-11-15T17:48:44;10.20;99.90
42479;DHT22;28110;47.080;9.476;2022-11-15T17:51:11;10.10;99.90